Time;durP1;ratioP1;P1;durP2;ratioP2;P2;SDS_P1;SDS_P2;PMS_P1;PMS_P2;Temp;Humidity;BMP_temperature;BMP_pressure;BME280_temperature;BME280_humidity;BME280_pressure;Samples;Min_cycle;Max_cycle;Signal;HPM_P1;HPM_P2
2021/01/13 00:00:29;;;;;;;39.30;19.23;;;;;;;-1.06;63.15;97728.80;120077;1151;104358;-69
2021/01/13 00:03:11;;;;;;;39.60;17.87;;;;;;;-1.08;63.22;97730.63;120033;1151;104388;-70
2021/01/13 00:05:40;;;;;;;44.53;21.25;;;;;;;-1.12;63.14;97731.69;119971;1153;104460;-71
2021/01/13 00:08:07;;;;;;;37.90;17.33;;;;;;;-1.13;63.02;97720.39;119968;1153;104439;-70
2021/01/13 00:10:40;;;;;;;41.60;19.90;;;;;;;-1.16;62.90;97717.92;120085;1151;104483;-71
2021/01/13 00:13:07;;;;;;;42.43;19.17;;;;;;;-1.15;63.85;97714.39;119770;1151;104453;-71
2021/01/13 00:15:34;;;;;;;39.58;18.77;;;;;;;-1.15;62.79;97716.17;119798;1151;105031;-71
2021/01/13 00:18:02;;;;;;;40.63;20.57;;;;;;;-1.20;63.64;97713.75;119855;1151;104375;-71
2021/01/13 00:20:29;;;;;;;39.83;19.53;;;;;;;-1.21;63.52;97719.89;119751;1152;104484;-72
2021/01/13 00:23:00;;;;;;;43.97;20.80;;;;;;;-1.24;63.53;97723.50;119830;1151;104427;-71
2021/01/13 00:25:27;;;;;;;44.00;23.50;;;;;;;-1.22;64.07;97720.81;120000;1151;104351;-68
2021/01/13 00:27:54;;;;;;;38.30;19.63;;;;;;;-1.20;63.82;97724.19;119802;1153;104843;-70
2021/01/13 00:30:22;;;;;;;42.67;20.47;;;;;;;-1.21;63.20;97707.70;120555;1153;104423;-69
2021/01/13 00:32:56;;;;;;;40.67;21.13;;;;;;;-1.17;64.44;97716.22;119952;1151;104408;-70
2021/01/13 00:35:23;;;;;;;40.38;21.17;;;;;;;-1.16;64.11;97707.48;119851;1151;104359;-71
2021/01/13 00:37:49;;;;;;;41.75;20.32;;;;;;;-1.15;63.24;97717.00;120032;1151;104393;-72
2021/01/13 00:40:16;;;;;;;38.37;18.43;;;;;;;-1.18;64.29;97713.70;119870;1151;104358;-71
2021/01/13 00:42:47;;;;;;;42.23;21.17;;;;;;;-1.17;64.31;97713.61;119795;1151;104383;-71
2021/01/13 00:45:18;;;;;;;43.27;21.97;;;;;;;-1.16;64.40;97717.09;120625;1152;104458;-70
2021/01/13 00:47:54;;;;;;;42.47;21.00;;;;;;;-1.16;64.00;97710.09;120030;1152;104462;-70
2021/01/13 00:50:23;;;;;;;41.57;21.13;;;;;;;-1.15;63.65;97708.34;120084;1153;104364;-70
2021/01/13 00:52:52;;;;;;;39.63;20.77;;;;;;;-1.13;63.56;97709.12;119977;1151;104357;-72
2021/01/13 00:55:25;;;;;;;42.40;20.95;;;;;;;-1.13;64.76;97712.55;119998;1151;104396;-72
2021/01/13 00:57:52;;;;;;;44.23;22.60;;;;;;;-1.09;64.31;97715.89;119924;1152;104391;-71
2021/01/13 01:00:20;;;;;;;45.23;22.40;;;;;;;-1.06;64.92;97706.13;119986;1152;104460;-70
2021/01/13 01:03:03;;;;;;;42.23;22.05;;;;;;;-1.01;64.33;97718.12;119999;1151;104361;-72
2021/01/13 01:05:30;;;;;;;38.30;19.83;;;;;;;-0.99;63.81;97716.29;119882;1153;104452;-71
2021/01/13 01:07:57;;;;;;;43.13;21.50;;;;;;;-1.00;64.97;97718.03;120039;1153;104383;-73
2021/01/13 01:10:30;;;;;;;38.77;20.37;;;;;;;-0.97;64.45;97709.23;120010;1152;104367;-73
2021/01/13 01:12:58;;;;;;;42.67;21.57;;;;;;;-0.97;64.03;97714.45;119785;1154;104484;-72
2021/01/13 01:15:25;;;;;;;40.67;19.77;;;;;;;-0.96;64.27;97713.53;119907;1153;104346;-71
2021/01/13 01:17:53;;;;;;;45.57;23.37;;;;;;;-0.96;65.16;97716.97;119782;1153;104350;-72
2021/01/13 01:20:20;;;;;;;43.40;21.73;;;;;;;-0.93;65.09;97719.44;120933;1151;104354;-71
2021/01/13 01:22:56;;;;;;;44.77;21.87;;;;;;;-0.91;64.86;97709.77;119817;1151;104468;-71
2021/01/13 01:25:26;;;;;;;42.30;21.43;;;;;;;-0.86;64.83;97716.55;119895;1153;104860;-72
2021/01/13 01:27:56;;;;;;;44.00;20.90;;;;;;;-0.84;65.56;97714.70;119889;1152;104356;-72
2021/01/13 01:30:25;;;;;;;38.87;19.77;;;;;;;-0.83;64.89;97717.27;120140;1153;104692;-70
2021/01/13 01:32:52;;;;;;;35.60;17.63;;;;;;;-0.81;64.59;97715.39;119946;1153;104465;-74
2021/01/13 01:35:19;;;;;;;40.63;20.60;;;;;;;-0.86;64.77;97717.41;120050;1152;104375;-71
2021/01/13 01:37:51;;;;;;;39.47;20.90;;;;;;;-0.90;64.96;97719.30;120022;1151;105022;-72
2021/01/13 01:40:19;;;;;;;43.53;21.43;;;;;;;-0.92;64.77;97713.30;120051;1153;104381;-71
2021/01/13 01:42:52;;;;;;;41.87;21.30;;;;;;;-0.95;65.70;97712.62;119925;1152;104650;-70
2021/01/13 01:45:23;;;;;;;36.33;18.00;;;;;;;-0.96;65.62;97705.70;119828;1153;104421;-71
2021/01/13 01:48:07;;;;;;;36.53;19.10;;;;;;;-0.96;64.65;97714.37;119855;1151;104390;-71
2021/01/13 01:50:36;;;;;;;39.43;19.70;;;;;;;-0.95;64.86;97712.62;119847;1152;104395;-70
2021/01/13 01:53:21;;;;;;;38.60;19.83;;;;;;;-0.96;65.37;97701.31;119888;1151;104454;-71
2021/01/13 01:56:21;;;;;;;43.17;24.20;;;;;;;-0.94;65.10;97704.70;119975;1151;104353;-71
2021/01/13 01:58:50;;;;;;;39.33;20.33;;;;;;;-0.90;65.12;97697.58;119613;1154;104394;-71
2021/01/13 02:01:30;;;;;;;40.70;21.17;;;;;;;-0.93;65.07;97700.34;119838;1151;104388;-71
2021/01/13 02:04:06;;;;;;;36.83;18.47;;;;;;;-0.96;65.48;97698.70;119861;1153;104380;-70
2021/01/13 02:06:43;;;;;;;39.97;20.20;;;;;;;-1.00;65.08;97694.55;119821;1154;104567;-71
2021/01/13 02:09:10;;;;;;;37.70;19.80;;;;;;;-1.01;65.65;97699.85;119640;1151;104650;-70
2021/01/13 02:11:44;;;;;;;35.80;17.87;;;;;;;-1.03;66.11;97692.11;119942;1152;104460;-71
2021/01/13 02:14:13;;;;;;;37.87;19.43;;;;;;;-1.03;66.34;97697.33;119892;1152;104364;-71
2021/01/13 02:16:47;;;;;;;39.57;21.60;;;;;;;-1.01;66.01;97694.63;120008;1151;104392;-70
2021/01/13 02:19:46;;;;;;;33.37;15.83;;;;;;;-1.00;66.37;97697.16;119904;1151;104450;-70
2021/01/13 02:22:21;;;;;;;32.27;16.60;;;;;;;-1.01;65.63;97689.41;119862;1153;104499;-71
2021/01/13 02:25:07;;;;;;;35.30;18.35;;;;;;;-1.05;66.19;97696.56;119917;1151;104458;-69
2021/01/13 02:28:12;;;;;;;34.17;17.40;;;;;;;-1.03;65.23;97696.47;119928;1151;104508;-71
2021/01/13 02:31:13;;;;;;;27.63;12.97;;;;;;;-1.06;66.02;97680.03;119917;1153;104427;-70
2021/01/13 02:33:48;;;;;;;36.03;17.47;;;;;;;-1.14;65.25;97671.72;119882;1151;104381;-71
2021/01/13 02:36:17;;;;;;;34.77;17.70;;;;;;;-1.15;66.11;97670.03;119960;1151;104364;-70
2021/01/13 02:38:51;;;;;;;33.40;16.93;;;;;;;-1.13;66.48;97675.19;119800;1154;104527;-70
2021/01/13 02:41:19;;;;;;;35.58;17.98;;;;;;;-1.11;66.21;97676.80;119789;1152;104461;-70
2021/01/13 02:44:09;;;;;;;33.60;18.23;;;;;;;-1.11;65.97;97681.19;119948;1152;104468;-70
2021/01/13 02:46:54;;;;;;;33.67;16.50;;;;;;;-1.12;66.71;97680.33;119908;1151;104364;-71
2021/01/13 02:49:26;;;;;;;36.30;18.50;;;;;;;-1.09;66.14;97681.96;119842;1153;104601;-74
2021/01/13 02:51:56;;;;;;;32.75;16.20;;;;;;;-1.06;66.03;97684.42;119874;1152;104394;-73
2021/01/13 02:54:41;;;;;;;31.15;16.10;;;;;;;-1.05;67.01;97681.73;120009;1153;104378;-71
2021/01/13 02:57:19;;;;;;;32.10;15.77;;;;;;;-1.03;66.37;97673.84;119875;1153;104388;-71
2021/01/13 02:59:50;;;;;;;33.07;16.83;;;;;;;-1.01;66.90;97677.19;120036;1153;104361;-72
2021/01/13 03:02:17;;;;;;;34.97;16.50;;;;;;;-0.97;67.08;97670.08;119998;1152;104365;-71
2021/01/13 03:04:45;;;;;;;31.15;14.45;;;;;;;-0.96;66.26;97677.82;119869;1151;104377;-71
2021/01/13 03:07:16;;;;;;;29.83;14.70;;;;;;;-0.95;66.37;97668.24;119848;1151;105807;-71
2021/01/13 03:09:47;;;;;;;31.07;16.27;;;;;;;-0.94;66.17;97673.38;119821;1151;104465;-70
2021/01/13 03:12:27;;;;;;;31.35;15.35;;;;;;;-0.93;66.33;97679.45;119860;1153;104352;-71
2021/01/13 03:14:56;;;;;;;27.93;14.03;;;;;;;-0.92;67.10;97673.31;120009;1154;104436;-71
2021/01/13 03:17:33;;;;;;;29.17;14.17;;;;;;;-0.93;67.27;97672.45;119866;1151;104383;-71
2021/01/13 03:20:07;;;;;;;31.53;15.27;;;;;;;-0.91;66.63;97677.62;120087;1152;104380;-70
2021/01/13 03:22:48;;;;;;;31.03;15.33;;;;;;;-0.88;66.87;97674.00;120037;1153;104351;-70
2021/01/13 03:25:18;;;;;;;29.20;14.43;;;;;;;-0.87;66.36;97671.33;119940;1153;104490;-70
2021/01/13 03:27:45;;;;;;;29.60;14.15;;;;;;;-0.85;67.32;97669.49;119861;1152;104591;-68
2021/01/13 03:30:14;;;;;;;28.70;12.85;;;;;;;-0.85;66.50;97673.85;119894;1153;104846;-70
2021/01/13 03:32:55;;;;;;;25.90;12.63;;;;;;;-0.86;67.17;97677.38;120035;1153;104973;-72
2021/01/13 03:35:44;;;;;;;28.40;14.20;;;;;;;-0.86;67.42;97683.47;119888;1151;105076;-71
2021/01/13 03:38:14;;;;;;;28.87;12.17;;;;;;;-0.83;67.08;97682.45;119917;1151;104430;-70
2021/01/13 03:40:46;;;;;;;30.10;14.13;;;;;;;-0.82;67.42;97687.62;119881;1153;104504;-70
2021/01/13 03:43:22;;;;;;;25.73;12.07;;;;;;;-0.80;66.67;97687.53;121829;1151;102105;-70
2021/01/13 03:45:54;;;;;;;28.53;13.80;;;;;;;-0.77;67.25;97680.38;120052;1152;104372;-71
2021/01/13 03:48:49;;;;;;;28.40;13.13;;;;;;;-0.72;67.67;97687.15;119868;1153;104425;-71
2021/01/13 03:51:25;;;;;;;26.60;12.00;;;;;;;-0.71;66.66;97696.67;120056;1152;104396;-72
2021/01/13 03:53:53;;;;;;;28.30;12.07;;;;;;;-0.70;66.95;97693.14;120115;1152;104876;-71
2021/01/13 03:56:26;;;;;;;26.57;13.07;;;;;;;-0.69;67.41;97694.83;120017;1151;104389;-71
2021/01/13 03:58:54;;;;;;;26.00;11.90;;;;;;;-0.67;67.75;97699.08;120045;1153;104359;-71
2021/01/13 04:01:21;;;;;;;24.23;10.93;;;;;;;-0.66;67.48;97703.38;119918;1153;104366;-71
2021/01/13 04:03:59;;;;;;;24.80;11.63;;;;;;;-0.64;67.07;97701.55;119917;1153;104364;-71
2021/01/13 04:06:27;;;;;;;27.57;12.17;;;;;;;-0.58;67.30;97699.52;119984;1152;104352;-72
2021/01/13 04:08:59;;;;;;;24.27;11.00;;;;;;;-0.58;67.45;97702.13;119920;1151;104452;-72
2021/01/13 04:11:35;;;;;;;25.80;11.47;;;;;;;-0.59;67.99;97709.14;121001;1152;104911;-73
2021/01/13 04:14:04;;;;;;;27.00;11.93;;;;;;;-0.56;67.22;97705.52;119781;1153;104451;-71
2021/01/13 04:16:36;;;;;;;25.97;12.07;;;;;;;-0.52;67.85;97715.76;120068;1153;104458;-70
2021/01/13 04:19:06;;;;;;;29.00;12.63;;;;;;;-0.49;67.66;97714.75;120050;1153;104458;-69
2021/01/13 04:21:36;;;;;;;30.67;14.07;;;;;;;-0.48;67.81;97709.47;119940;1153;104453;-70
2021/01/13 04:24:04;;;;;;;31.50;13.77;;;;;;;-0.44;68.22;97712.76;120146;1153;104432;-70
2021/01/13 04:26:33;;;;;;;34.70;14.00;;;;;;;-0.41;67.64;97712.61;120049;1152;104356;-70
2021/01/13 04:29:00;;;;;;;37.27;15.37;;;;;;;-0.41;68.37;97712.61;120096;1151;104455;-70
2021/01/13 04:31:27;;;;;;;32.17;14.23;;;;;;;-0.38;67.85;97711.59;119970;1151;104838;-70
2021/01/13 04:33:55;;;;;;;26.03;11.33;;;;;;;-0.36;68.39;97720.20;119885;1153;104460;-69
2021/01/13 04:36:24;;;;;;;27.42;11.43;;;;;;;-0.34;67.74;97715.75;120043;1152;104453;-70
2021/01/13 04:39:00;;;;;;;23.90;10.77;;;;;;;-0.30;68.28;97712.06;119941;1152;104462;-68
2021/01/13 04:41:41;;;;;;;24.23;11.40;;;;;;;-0.26;68.27;97721.44;119967;1152;104377;-70
2021/01/13 04:44:18;;;;;;;24.50;10.00;;;;;;;-0.21;67.86;97722.06;119988;1154;104621;-71
2021/01/13 04:46:55;;;;;;;21.97;9.03;;;;;;;-0.17;67.91;97718.38;120080;1151;104501;-69
2021/01/13 04:49:27;;;;;;;25.33;10.20;;;;;;;-0.13;68.41;97724.27;119991;1152;104495;-72
2021/01/13 04:52:02;;;;;;;22.20;9.43;;;;;;;-0.10;68.45;97724.12;120067;1151;104458;-69
2021/01/13 04:54:31;;;;;;;25.17;10.40;;;;;;;-0.07;68.03;97736.20;120082;1151;104430;-69
2021/01/13 04:57:20;;;;;;;23.97;9.63;;;;;;;-0.05;67.85;97747.44;120066;1151;106463;-71
2021/01/13 05:00:06;;;;;;;23.63;10.77;;;;;;;-0.06;68.31;97741.34;120026;1151;104465;-71
2021/01/13 05:02:43;;;;;;;23.67;9.77;;;;;;;-0.03;68.12;97742.97;119994;1151;104492;-70
2021/01/13 05:05:21;;;;;;;21.33;8.90;;;;;;;-0.03;67.87;97746.42;119941;1151;104359;-70
2021/01/13 05:08:28;;;;;;;21.03;8.20;;;;;;;-0.03;68.49;97750.81;120222;1151;104430;-71
2021/01/13 05:11:17;;;;;;;21.13;8.40;;;;;;;-0.05;67.90;97739.59;120013;1154;104467;-72
2021/01/13 05:13:47;;;;;;;18.07;6.93;;;;;;;-0.05;68.02;97750.88;119990;1153;104358;-72
2021/01/13 05:16:15;;;;;;;21.25;9.60;;;;;;;-0.05;68.74;97755.27;119971;1151;104529;-70
2021/01/13 05:18:54;;;;;;;22.50;10.23;;;;;;;-0.05;68.46;97761.33;119942;1151;104484;-70
2021/01/13 05:21:27;;;;;;;20.40;9.03;;;;;;;-0.04;68.20;97759.58;119870;1153;104397;-69
2021/01/13 05:23:56;;;;;;;20.73;9.10;;;;;;;-0.05;68.08;97760.50;120544;1151;104374;-70
2021/01/13 05:26:26;;;;;;;18.43;8.33;;;;;;;-0.04;68.41;97754.35;119949;1153;104383;-70
2021/01/13 05:29:33;;;;;;;20.67;8.37;;;;;;;-0.04;68.71;97765.64;119996;1153;106188;-69
2021/01/13 05:32:03;;;;;;;18.97;8.07;;;;;;;-0.06;68.77;97764.04;120037;1153;104361;-70
2021/01/13 05:34:36;;;;;;;15.27;6.43;;;;;;;-0.07;67.94;97763.17;120063;1151;104396;-70
2021/01/13 05:37:12;;;;;;;19.90;7.50;;;;;;;-0.07;68.65;97783.26;119944;1153;104612;-70
2021/01/13 05:39:40;;;;;;;16.45;7.00;;;;;;;-0.08;68.46;97787.62;120030;1153;104359;-69
2021/01/13 05:42:08;;;;;;;15.97;5.90;;;;;;;-0.09;68.14;97778.09;120034;1153;104399;-70
2021/01/13 05:44:36;;;;;;;18.50;7.43;;;;;;;-0.10;68.02;97788.64;121300;1151;104355;-70
2021/01/13 05:47:05;;;;;;;15.83;6.50;;;;;;;-0.11;68.77;97786.95;119778;1154;104827;-69
2021/01/13 05:49:33;;;;;;;17.57;6.90;;;;;;;-0.13;68.14;97792.23;121979;1151;104121;-69
2021/01/13 05:52:09;;;;;;;15.40;6.27;;;;;;;-0.13;68.38;97801.86;121975;1151;102635;-69
2021/01/13 05:54:38;;;;;;;19.27;7.30;;;;;;;-0.16;68.61;97802.84;120196;1151;104491;-69
2021/01/13 05:57:05;;;;;;;17.55;6.70;;;;;;;-0.17;68.30;97808.98;119971;1153;104447;-70
2021/01/13 05:59:34;;;;;;;17.60;7.05;;;;;;;-0.18;68.34;97804.68;120023;1152;104385;-69
2021/01/13 06:02:05;;;;;;;19.30;6.50;;;;;;;-0.20;68.39;97798.68;120022;1154;104609;-69
2021/01/13 06:04:36;;;;;;;19.67;7.00;;;;;;;-0.20;68.84;97798.68;119994;1153;104385;-70
2021/01/13 06:07:25;;;;;;;21.57;8.33;;;;;;;-0.20;68.41;97803.91;120075;1153;104372;-70
2021/01/13 06:09:57;;;;;;;19.53;7.47;;;;;;;-0.21;68.88;97800.46;120008;1153;104464;-69
2021/01/13 06:12:25;;;;;;;18.03;6.27;;;;;;;-0.22;68.52;97806.61;120111;1153;104388;-69
2021/01/13 06:14:54;;;;;;;17.20;6.93;;;;;;;-0.24;68.77;97799.78;120103;1151;104453;-70
2021/01/13 06:17:23;;;;;;;19.33;7.33;;;;;;;-0.24;68.44;97805.84;120128;1151;104451;-71
2021/01/13 06:19:53;;;;;;;18.80;7.90;;;;;;;-0.23;68.32;97812.76;120153;1153;104358;-70
2021/01/13 06:22:32;;;;;;;18.83;7.80;;;;;;;-0.24;68.44;97813.67;120077;1151;104425;-70
2021/01/13 06:25:02;;;;;;;20.90;7.93;;;;;;;-0.26;68.75;97805.06;120082;1151;104384;-70
2021/01/13 06:27:49;;;;;;;19.43;8.53;;;;;;;-0.26;68.46;97820.75;120051;1153;104393;-71
2021/01/13 06:30:28;;;;;;;18.20;7.03;;;;;;;-0.27;68.25;97828.67;120011;1151;104378;-70
2021/01/13 06:33:04;;;;;;;15.90;5.90;;;;;;;-0.28;69.13;97829.59;120041;1153;104429;-70
2021/01/13 06:35:43;;;;;;;21.70;8.23;;;;;;;-0.31;69.11;97833.19;120047;1151;104385;-68
2021/01/13 06:38:29;;;;;;;18.07;7.33;;;;;;;-0.31;68.91;97839.27;120090;1151;104433;-69
2021/01/13 06:41:02;;;;;;;20.33;6.93;;;;;;;-0.31;68.22;97841.02;120088;1152;104473;-70
2021/01/13 06:43:29;;;;;;;22.10;7.97;;;;;;;-0.32;68.30;97848.03;120031;1151;104359;-70
2021/01/13 06:45:57;;;;;;;19.37;8.53;;;;;;;-0.29;69.14;97854.86;120046;1151;104460;-69
2021/01/13 06:48:29;;;;;;;19.63;7.23;;;;;;;-0.26;68.95;97859.11;120066;1151;104525;-70
2021/01/13 06:50:58;;;;;;;20.87;7.73;;;;;;;-0.27;68.76;97860.86;120053;1151;104468;-69
2021/01/13 06:53:35;;;;;;;23.77;8.87;;;;;;;-0.24;68.53;97859.89;120009;1153;104543;-70
2021/01/13 06:56:16;;;;;;;20.45;8.65;;;;;;;-0.25;68.93;97858.20;119996;1153;104378;-70
2021/01/13 06:59:00;;;;;;;20.10;8.65;;;;;;;-0.26;68.68;97864.34;120013;1151;104466;-70
2021/01/13 07:01:29;;;;;;;19.92;8.35;;;;;;;-0.26;68.87;97866.95;120072;1151;104383;-70
2021/01/13 07:04:01;;;;;;;21.63;8.17;;;;;;;-0.24;68.72;97860.72;120087;1151;104532;-71
2021/01/13 07:06:28;;;;;;;19.17;6.60;;;;;;;-0.23;69.22;97861.58;120043;1152;104587;-71
2021/01/13 07:08:57;;;;;;;20.10;7.53;;;;;;;-0.24;68.87;97870.34;120052;1151;104398;-67
2021/01/13 07:11:26;;;;;;;20.33;7.67;;;;;;;-0.24;69.26;97876.41;120123;1153;104433;-70
2021/01/13 07:13:55;;;;;;;21.25;8.00;;;;;;;-0.23;68.73;97870.25;120012;1152;104418;-70
2021/01/13 07:16:28;;;;;;;16.03;5.73;;;;;;;-0.21;68.55;97870.20;120022;1151;104452;-69
2021/01/13 07:18:59;;;;;;;20.60;7.87;;;;;;;-0.22;69.26;97864.11;120069;1151;104476;-67
2021/01/13 07:21:40;;;;;;;20.10;7.53;;;;;;;-0.21;69.00;97863.19;119995;1154;104359;-68
2021/01/13 07:24:12;;;;;;;20.27;7.70;;;;;;;-0.25;68.86;97869.48;120032;1153;104399;-68
2021/01/13 07:26:41;;;;;;;17.83;6.90;;;;;;;-0.23;69.41;97866.81;120038;1153;104435;-69
2021/01/13 07:29:09;;;;;;;20.07;7.47;;;;;;;-0.24;68.93;97875.57;120073;1153;104382;-70
2021/01/13 07:31:36;;;;;;;20.07;7.80;;;;;;;-0.24;69.15;97871.17;120060;1153;104399;-69
2021/01/13 07:34:19;;;;;;;22.33;7.13;;;;;;;-0.22;68.94;97881.57;120008;1153;104389;-69
2021/01/13 07:36:51;;;;;;;20.80;7.90;;;;;;;-0.23;69.45;97872.88;120030;1151;104433;-70
2021/01/13 07:39:18;;;;;;;18.90;7.60;;;;;;;-0.22;68.93;97885.02;120041;1153;104402;-68
2021/01/13 07:42:03;;;;;;;23.73;8.90;;;;;;;-0.20;69.52;97890.16;120022;1153;104449;-70
2021/01/13 07:44:43;;;;;;;21.73;8.40;;;;;;;-0.18;69.26;97890.93;120062;1154;104608;-70
2021/01/13 07:47:27;;;;;;;18.33;6.77;;;;;;;-0.16;69.51;97889.95;120025;1153;104382;-71
2021/01/13 07:50:07;;;;;;;25.40;10.10;;;;;;;-0.24;69.63;97893.86;120070;1153;104429;-66
2021/01/13 07:52:52;;;;;;;23.00;10.70;;;;;;;-0.23;69.71;97890.33;120007;1154;104511;-70
2021/01/13 07:55:23;;;;;;;23.30;11.03;;;;;;;-0.23;69.68;97885.94;120045;1153;104380;-70
2021/01/13 07:57:51;;;;;;;24.30;9.95;;;;;;;-0.20;69.82;97892.77;120056;1152;104504;-71
2021/01/13 08:00:37;;;;;;;28.07;11.73;;;;;;;-0.21;69.02;97902.39;120041;1153;104883;-70
2021/01/13 08:03:26;;;;;;;26.23;12.13;;;;;;;-0.21;69.51;97894.55;120030;1152;104455;-68
2021/01/13 08:06:28;;;;;;;26.55;12.50;;;;;;;-0.20;69.89;97905.84;119950;1152;104350;-68
2021/01/13 08:09:06;;;;;;;30.93;14.23;;;;;;;-0.18;69.56;97897.02;119998;1151;104383;-69
2021/01/13 08:11:55;;;;;;;29.13;13.53;;;;;;;-0.12;70.04;97895.88;120013;1152;104378;-69
2021/01/13 08:15:04;;;;;;;30.37;15.17;;;;;;;-0.10;70.03;97903.66;119959;1153;104402;-70
2021/01/13 08:18:01;;;;;;;29.10;13.80;;;;;;;-0.07;69.73;97898.28;120032;1151;104396;-69
2021/01/13 08:20:31;;;;;;;32.77;16.63;;;;;;;-0.03;69.80;97898.05;119973;1151;104432;-70
2021/01/13 08:23:11;;;;;;;33.57;16.50;;;;;;;-0.01;69.58;97901.44;120031;1151;104467;-69
2021/01/13 08:25:42;;;;;;;30.57;15.47;;;;;;;0.03;69.64;97898.67;119996;1149;105093;-68
2021/01/13 08:28:12;;;;;;;31.77;15.90;;;;;;;0.05;69.55;97907.30;119990;1151;104361;-68
2021/01/13 08:30:44;;;;;;;29.63;13.47;;;;;;;0.04;69.29;97895.97;120019;1151;104359;-69
2021/01/13 08:33:25;;;;;;;30.73;15.27;;;;;;;0.05;70.14;97907.30;120012;1151;104413;-69
2021/01/13 08:36:01;;;;;;;29.77;13.87;;;;;;;0.07;69.98;97910.69;119858;1151;104467;-70
2021/01/13 08:38:28;;;;;;;27.27;13.27;;;;;;;0.09;69.80;97911.45;122130;1150;103074;-70
2021/01/13 08:40:56;;;;;;;29.77;13.80;;;;;;;0.07;69.89;97903.67;120626;1151;104430;-69
2021/01/13 08:43:24;;;;;;;27.97;12.50;;;;;;;0.06;69.50;97904.59;120028;1153;104476;-68
2021/01/13 08:45:53;;;;;;;31.27;15.63;;;;;;;0.05;69.34;97904.68;119951;1154;104465;-71
2021/01/13 08:48:22;;;;;;;27.50;13.10;;;;;;;0.02;69.94;97904.83;120029;1152;104359;-69
2021/01/13 08:51:04;;;;;;;30.17;14.00;;;;;;;-0.01;69.94;97901.44;119683;1151;104496;-69
2021/01/13 08:53:33;;;;;;;29.93;14.57;;;;;;;-0.04;69.86;97912.03;119865;1151;104464;-68
2021/01/13 08:56:02;;;;;;;29.83;14.17;;;;;;;-0.04;70.39;97924.28;119903;1151;104490;-69
2021/01/13 08:58:33;;;;;;;29.73;14.37;;;;;;;-0.02;70.11;97914.59;119921;1151;104380;-67
2021/01/13 09:01:08;;;;;;;26.90;13.07;;;;;;;-0.02;70.11;97923.27;119946;1153;104411;-69
2021/01/13 09:03:37;;;;;;;27.73;12.60;;;;;;;0.00;70.15;97920.60;119924;1151;104456;-71
2021/01/13 09:06:24;;;;;;;29.10;14.23;;;;;;;-0.03;70.25;97921.58;119918;1148;104451;-70
2021/01/13 09:08:53;;;;;;;27.03;13.17;;;;;;;-0.03;70.22;97928.59;119959;1151;104354;-69
2021/01/13 09:11:35;;;;;;;26.10;12.03;;;;;;;-0.01;70.23;97929.36;119944;1148;104375;-69
2021/01/13 09:14:23;;;;;;;32.07;14.17;;;;;;;-0.03;70.27;97932.03;120034;1151;104379;-68
2021/01/13 09:16:54;;;;;;;25.97;12.03;;;;;;;-0.04;69.88;97940.80;119657;1151;105910;-69
2021/01/13 09:19:37;;;;;;;24.12;11.48;;;;;;;-0.09;69.86;97948.01;120135;1151;104445;-68
2021/01/13 09:22:09;;;;;;;26.20;9.63;;;;;;;-0.14;70.12;97942.14;119973;1151;104457;-68
2021/01/13 09:24:40;;;;;;;21.47;9.40;;;;;;;-0.14;70.52;97939.53;119957;1151;104352;-70
2021/01/13 09:27:11;;;;;;;18.43;7.73;;;;;;;-0.14;70.66;97938.70;119953;1151;104427;-69
2021/01/13 09:29:53;;;;;;;25.97;11.27;;;;;;;-0.13;70.59;97943.01;119928;1151;104585;-70
2021/01/13 09:32:22;;;;;;;18.57;7.53;;;;;;;-0.17;70.51;97937.92;119886;1151;104428;-68
2021/01/13 09:34:53;;;;;;;22.40;8.77;;;;;;;-0.20;70.57;97948.52;119975;1151;104405;-69
2021/01/13 09:37:22;;;;;;;21.13;7.53;;;;;;;-0.23;70.65;97943.44;119933;1151;104380;-70
2021/01/13 09:40:04;;;;;;;21.93;7.90;;;;;;;-0.25;70.28;97941.83;120060;1151;104433;-69
2021/01/13 09:42:37;;;;;;;;;;;;;;;-0.34;69.87;97941.33;119912;1151;104448;-69
2021/01/13 09:45:06;;;;;;;18.75;8.35;;;;;;;-0.42;70.32;97940.83;119945;1151;104492;-69
2021/01/13 09:47:33;;;;;;;19.57;8.30;;;;;;;-0.43;70.39;97948.75;119892;1151;104545;-69
2021/01/13 09:50:01;;;;;;;18.33;7.93;;;;;;;-0.46;70.62;97931.44;119935;1151;104352;-68
2021/01/13 09:52:43;;;;;;;20.87;8.40;;;;;;;-0.48;71.06;97941.97;120006;1151;104502;-69
2021/01/13 09:55:11;;;;;;;18.57;7.43;;;;;;;-0.49;70.25;97948.11;119997;1153;104532;-70
2021/01/13 09:57:39;;;;;;;22.50;8.20;;;;;;;-0.50;70.31;97953.39;119980;1151;104405;-70
2021/01/13 10:00:08;;;;;;;19.43;7.93;;;;;;;-0.49;71.16;97948.11;119994;1151;104468;-70
2021/01/13 10:02:35;;;;;;;22.17;8.43;;;;;;;-0.48;71.13;97946.33;119976;1151;104384;-70
2021/01/13 10:05:03;;;;;;;22.50;9.73;;;;;;;-0.47;70.52;97941.05;119956;1151;104354;-69
2021/01/13 10:07:33;;;;;;;24.00;10.43;;;;;;;-0.44;70.35;97947.89;119981;1151;104511;-69
2021/01/13 10:10:02;;;;;;;26.10;10.43;;;;;;;-0.42;71.09;97947.83;120017;1151;105522;-70
2021/01/13 10:12:42;;;;;;;24.90;10.87;;;;;;;-0.42;70.46;97940.83;119933;1152;104850;-69
2021/01/13 10:15:13;;;;;;;25.33;9.83;;;;;;;-0.39;70.74;97951.14;119970;1153;104451;-70
2021/01/13 10:17:42;;;;;;;24.33;10.07;;;;;;;-0.38;71.19;97937.16;120010;1151;104452;-68
2021/01/13 10:20:14;;;;;;;24.20;8.47;;;;;;;-0.40;70.96;97940.74;119984;1151;104375;-71
2021/01/13 10:22:43;;;;;;;24.40;9.70;;;;;;;-0.41;70.62;97952.14;119997;1151;104358;-68
2021/01/13 10:25:24;;;;;;;24.37;8.83;;;;;;;-0.43;71.04;97952.20;119972;1151;104383;-68
2021/01/13 10:27:51;;;;;;;27.80;8.10;;;;;;;-0.43;70.76;97956.59;119931;1151;104455;-69
2021/01/13 10:30:18;;;;;;;21.60;7.23;;;;;;;-0.43;70.76;97946.97;119933;1151;104431;-68
2021/01/13 10:32:47;;;;;;;22.40;8.77;;;;;;;-0.42;70.61;97958.28;119964;1153;104381;-67
2021/01/13 10:35:16;;;;;;;23.57;8.30;;;;;;;-0.41;70.92;97955.59;119952;1151;104451;-70
2021/01/13 10:37:50;;;;;;;25.37;8.57;;;;;;;-0.43;70.82;97957.42;119904;1151;104442;-69
2021/01/13 10:40:19;;;;;;;22.20;8.70;;;;;;;-0.42;70.78;97968.73;119904;1151;104462;-68
2021/01/13 10:42:49;;;;;;;21.30;8.00;;;;;;;-0.44;71.27;97954.89;120000;1151;104462;-68
2021/01/13 10:45:18;;;;;;;20.10;7.27;;;;;;;-0.48;70.75;97970.70;119932;1152;104470;-67
2021/01/13 10:47:55;;;;;;;21.13;7.83;;;;;;;-0.50;70.58;97958.61;119961;1152;104379;-67
2021/01/13 10:50:26;;;;;;;20.77;7.83;;;;;;;-0.50;71.15;97977.77;119927;1152;104461;-68
2021/01/13 10:52:59;;;;;;;22.97;9.60;;;;;;;-0.51;71.33;97967.37;119920;1151;104375;-68
2021/01/13 10:55:28;;;;;;;19.30;7.80;;;;;;;-0.55;70.52;97969.28;119873;1154;104554;-69
2021/01/13 10:57:56;;;;;;;22.30;7.80;;;;;;;-0.56;70.86;97964.98;119855;1151;104375;-69
2021/01/13 11:00:30;;;;;;;21.27;8.13;;;;;;;-0.56;70.66;97977.17;119837;1152;104825;-75
2021/01/13 11:03:03;;;;;;;23.00;7.30;;;;;;;-0.59;70.59;97970.33;119838;1153;104375;-69
2021/01/13 11:05:34;;;;;;;25.70;8.65;;;;;;;-0.60;70.99;97961.63;119651;1151;104425;-70
2021/01/13 11:08:03;;;;;;;24.27;8.23;;;;;;;-0.61;70.58;97957.33;121979;1151;102095;-69
2021/01/13 11:10:31;;;;;;;21.07;7.23;;;;;;;-0.58;71.43;97958.11;120245;1151;104489;-68
2021/01/13 11:13:05;;;;;;;25.93;9.23;;;;;;;-0.58;70.80;97960.72;120754;1151;104425;-69
2021/01/13 11:15:33;;;;;;;25.97;8.10;;;;;;;-0.57;70.70;97958.05;119734;1153;104450;-69
2021/01/13 11:18:06;;;;;;;21.07;7.20;;;;;;;-0.56;70.97;97972.81;119660;1151;104386;-69
2021/01/13 11:20:34;;;;;;;22.85;7.70;;;;;;;-0.55;71.19;97966.67;119781;1153;104418;-70
2021/01/13 11:23:02;;;;;;;20.77;7.60;;;;;;;-0.52;70.81;97974.37;120075;1153;104465;-70
2021/01/13 11:25:37;;;;;;;24.07;7.20;;;;;;;-0.53;70.80;97967.45;119965;1151;104362;-72
2021/01/13 11:28:05;;;;;;;23.77;7.70;;;;;;;-0.57;71.38;97957.19;119990;1151;104410;-69
2021/01/13 11:30:38;;;;;;;20.47;7.43;;;;;;;-0.52;71.49;97963.06;119943;1151;104393;-69
2021/01/13 11:33:09;;;;;;;22.53;8.20;;;;;;;-0.49;71.54;97963.78;120007;1151;104367;-69